createdAt,value
2023-08-16T00:01:43.550Z,24.41
2023-08-16T00:06:45.103Z,24.38
2023-08-16T00:11:46.663Z,24.36
2023-08-16T00:16:48.246Z,24.24
2023-08-16T00:21:49.819Z,24.32
2023-08-16T00:26:51.416Z,24.36
2023-08-16T00:31:52.984Z,24.27
2023-08-16T00:36:54.512Z,24.15
2023-08-16T00:41:56.204Z,24.17
2023-08-16T00:46:57.803Z,24.17
2023-08-16T00:52:01.932Z,24.21
2023-08-16T00:57:04.378Z,24.20
2023-08-16T01:02:06.102Z,24.15
2023-08-16T01:07:08.364Z,24.14
2023-08-16T01:12:23.038Z,24.13
2023-08-16T01:17:26.512Z,23.96
2023-08-16T01:22:39.132Z,23.93
2023-08-16T01:27:42.255Z,23.89
2023-08-16T01:32:44.070Z,23.84
2023-08-16T01:37:45.933Z,23.90
2023-08-16T01:42:50.425Z,23.90
2023-08-16T01:47:53.815Z,23.87
2023-08-16T01:52:56.104Z,23.76
2023-08-16T01:57:58.384Z,23.73
2023-08-16T02:03:00.070Z,23.69
2023-08-16T02:08:01.685Z,23.71
2023-08-16T02:13:03.672Z,23.73
2023-08-16T02:18:07.391Z,23.31
2023-08-16T02:23:09.805Z,23.43
2023-08-16T02:28:11.376Z,23.45
2023-08-16T02:33:13.514Z,23.07
2023-08-16T02:38:15.130Z,23.16
2023-08-16T02:43:17.810Z,23.31
2023-08-16T02:48:19.477Z,23.41
2023-08-16T02:53:21.045Z,23.46
2023-08-16T02:58:22.603Z,23.51
2023-08-16T03:03:24.714Z,23.43
2023-08-16T03:08:26.314Z,23.24
2023-08-16T03:13:27.902Z,23.13
2023-08-16T03:18:29.432Z,23.11
2023-08-16T03:23:31.315Z,23.02
2023-08-16T03:28:32.839Z,23.19
2023-08-16T03:33:34.702Z,23.21
2023-08-16T03:38:36.982Z,23.21
2023-08-16T03:43:39.695Z,23.14
2023-08-16T03:48:41.224Z,23.08
2023-08-16T03:53:42.754Z,22.74
2023-08-16T03:58:44.896Z,22.86
2023-08-16T04:03:47.557Z,22.96
2023-08-16T04:08:49.380Z,23.00
2023-08-16T04:13:50.943Z,22.85
2023-08-16T04:18:54.414Z,22.81
2023-08-16T04:23:57.385Z,22.64
2023-08-16T04:28:59.506Z,22.78
2023-08-16T04:34:01.071Z,22.92
2023-08-16T04:39:02.718Z,22.91
2023-08-16T04:44:04.717Z,22.81
2023-08-16T04:49:07.106Z,22.65
2023-08-16T04:54:08.737Z,22.61
2023-08-16T04:59:10.442Z,22.50
2023-08-16T05:04:12.171Z,22.48
2023-08-16T05:09:13.786Z,22.42
2023-08-16T05:14:15.949Z,22.49
2023-08-16T05:19:17.596Z,22.43
2023-08-16T05:24:19.185Z,22.52
2023-08-16T05:29:20.957Z,22.44
2023-08-16T05:34:23.817Z,22.48
2023-08-16T05:39:25.792Z,22.37
2023-08-16T05:44:27.361Z,22.11
2023-08-16T05:49:30.004Z,22.07
2023-08-16T05:54:31.601Z,22.25
2023-08-16T05:59:33.129Z,22.07
2023-08-16T06:04:35.501Z,22.13
2023-08-16T06:09:37.084Z,22.28
2023-08-16T06:14:39.563Z,22.07
2023-08-16T06:19:41.206Z,22.04
2023-08-16T06:24:42.805Z,22.19
2023-08-16T06:29:44.414Z,22.26
2023-08-16T06:34:45.975Z,22.25
2023-08-16T06:39:47.488Z,22.41
2023-08-16T06:44:49.165Z,22.12
2023-08-16T06:49:50.700Z,21.97
2023-08-16T06:54:52.190Z,22.38
2023-08-16T06:59:53.720Z,22.07
2023-08-16T07:04:55.237Z,21.97
2023-08-16T07:09:56.786Z,22.45
2023-08-16T07:14:58.424Z,22.75
2023-08-16T07:20:00.268Z,22.92
2023-08-16T07:25:03.162Z,22.95
2023-08-16T07:30:08.591Z,23.07
2023-08-16T07:35:10.767Z,23.19
2023-08-16T07:40:12.545Z,23.21
2023-08-16T07:45:14.147Z,23.32
2023-08-16T07:50:15.673Z,23.41
2023-08-16T07:55:17.880Z,23.59
2023-08-16T08:00:20.483Z,23.71
2023-08-16T08:05:23.071Z,23.93
2023-08-16T08:10:24.642Z,23.79
2023-08-16T08:15:26.396Z,23.91
2023-08-16T08:20:28.056Z,23.82
2023-08-16T08:25:31.066Z,24.01
2023-08-16T08:30:32.791Z,24.13
2023-08-16T08:35:34.759Z,24.13
2023-08-16T08:40:36.846Z,24.27
2023-08-16T08:45:40.351Z,24.30
2023-08-16T08:50:43.993Z,23.76
2023-08-16T08:55:48.250Z,24.38
2023-08-16T09:00:50.898Z,24.36
2023-08-16T09:05:54.529Z,24.56
2023-08-16T09:10:56.358Z,24.76
2023-08-16T09:15:57.948Z,24.69
2023-08-16T09:21:00.681Z,24.56
2023-08-16T09:26:02.205Z,25.18
2023-08-16T09:31:08.077Z,25.10
2023-08-16T09:36:09.720Z,24.91
2023-08-16T09:41:16.804Z,25.29
2023-08-16T09:46:22.134Z,25.06
2023-08-16T09:52:13.494Z,25.72
2023-08-16T10:07:21.596Z,25.90
2023-08-16T10:12:58.603Z,26.40
2023-08-16T10:18:43.783Z,26.70
2023-08-16T10:24:57.812Z,26.52
2023-08-16T10:31:13.000Z,26.84
2023-08-16T10:49:41.494Z,26.84
2023-08-16T10:54:43.495Z,27.40
2023-08-16T10:59:46.290Z,28.11
2023-08-16T11:04:47.986Z,28.31
2023-08-16T11:09:49.891Z,28.25
2023-08-16T11:14:52.061Z,26.92
2023-08-16T11:19:57.037Z,27.08
2023-08-16T11:25:01.064Z,27.06
2023-08-16T11:30:02.802Z,27.78
2023-08-16T11:35:09.728Z,28.68
2023-08-16T11:40:11.650Z,28.07
2023-08-16T11:45:18.889Z,28.76
2023-08-16T11:50:26.425Z,29.20
2023-08-16T11:55:31.003Z,28.63
2023-08-16T12:00:34.375Z,28.94
2023-08-16T12:05:37.546Z,29.90
2023-08-16T12:10:40.299Z,29.46
2023-08-16T12:15:42.985Z,29.02
2023-08-16T12:20:50.924Z,29.39
2023-08-16T12:25:52.544Z,29.46
2023-08-16T12:30:54.075Z,29.27
2023-08-16T12:35:55.592Z,30.03
2023-08-16T12:40:57.130Z,29.84
2023-08-16T12:46:00.890Z,29.70
2023-08-16T12:51:04.166Z,29.78
2023-08-16T12:56:07.078Z,30.57
2023-08-16T13:01:18.417Z,29.63
2023-08-16T13:06:31.047Z,30.78
2023-08-16T13:11:36.460Z,30.98
2023-08-16T13:21:53.238Z,30.15
2023-08-16T13:32:03.031Z,30.85
2023-08-16T13:37:25.080Z,31.33
2023-08-16T13:47:32.171Z,31.56
2023-08-16T13:52:33.779Z,33.27
2023-08-16T13:57:35.312Z,33.19
2023-08-16T14:02:37.922Z,32.99
2023-08-16T14:07:43.051Z,33.13
2023-08-16T14:12:44.678Z,33.03
2023-08-16T14:17:46.251Z,32.43
2023-08-16T14:22:47.780Z,31.82
2023-08-16T14:27:59.811Z,32.09
2023-08-16T14:33:01.453Z,32.65
2023-08-16T14:38:03.235Z,32.82
2023-08-16T14:43:04.943Z,31.71
2023-08-16T14:48:06.840Z,31.99
2023-08-16T14:53:08.529Z,31.31
2023-08-16T14:58:10.435Z,33.51
2023-08-16T15:03:12.070Z,32.77
2023-08-16T15:08:16.035Z,33.34
2023-08-16T15:13:17.607Z,33.34
2023-08-16T15:18:19.191Z,33.53
2023-08-16T15:23:24.239Z,34.05
2023-08-16T15:28:25.851Z,34.36
2023-08-16T15:33:27.672Z,32.76
2023-08-16T15:38:44.018Z,33.01
2023-08-16T15:43:45.631Z,33.23
2023-08-16T15:48:47.217Z,31.25
2023-08-16T15:53:48.763Z,32.15
2023-08-16T15:58:50.280Z,32.65
2023-08-16T16:03:52.835Z,32.46
2023-08-16T16:08:54.333Z,32.70
2023-08-16T16:14:04.048Z,33.11
2023-08-16T16:19:05.603Z,32.36
2023-08-16T16:24:07.347Z,32.72
2023-08-16T16:29:10.602Z,33.05
2023-08-16T16:34:12.125Z,33.33
2023-08-16T16:39:13.666Z,33.33
2023-08-16T16:44:15.167Z,32.47
2023-08-16T16:49:19.750Z,33.13
2023-08-16T16:54:21.258Z,33.15
2023-08-16T16:59:22.828Z,32.66
2023-08-16T17:04:24.379Z,33.14
2023-08-16T17:09:25.922Z,32.67
2023-08-16T17:14:27.476Z,32.44
2023-08-16T17:19:29.056Z,32.62
2023-08-16T17:24:30.605Z,32.72
2023-08-16T17:29:32.138Z,32.50
2023-08-16T17:34:33.671Z,32.54
2023-08-16T17:39:35.186Z,32.37
2023-08-16T17:44:36.685Z,32.27
2023-08-16T17:49:38.174Z,32.18
2023-08-16T17:54:39.712Z,32.10
2023-08-16T17:59:41.234Z,32.01
2023-08-16T18:04:43.402Z,31.94
2023-08-16T18:09:45.605Z,31.74
2023-08-16T18:14:48.717Z,31.71
2023-08-16T18:19:50.556Z,31.54
2023-08-16T18:24:52.074Z,31.43
2023-08-16T18:29:53.735Z,31.27
2023-08-16T18:34:55.998Z,31.08
2023-08-16T18:39:57.650Z,30.95
2023-08-16T18:44:59.201Z,30.81
2023-08-16T18:50:00.704Z,30.72
2023-08-16T18:55:02.219Z,30.57
2023-08-16T19:00:03.966Z,30.37
2023-08-16T19:05:05.993Z,30.23
2023-08-16T19:10:08.219Z,30.08
2023-08-16T19:15:10.136Z,29.95
2023-08-16T19:20:11.857Z,29.84
2023-08-16T19:25:13.379Z,29.66
2023-08-16T19:30:15.410Z,29.51
2023-08-16T19:35:17.169Z,29.40
2023-08-16T19:40:18.759Z,29.23
2023-08-16T19:45:20.540Z,29.13
2023-08-16T19:50:24.980Z,28.97
2023-08-16T19:55:26.539Z,28.87
2023-08-16T20:00:28.304Z,28.71
2023-08-16T20:05:30.245Z,28.58
2023-08-16T20:10:33.376Z,28.48
2023-08-16T20:15:34.928Z,28.33
2023-08-16T20:20:36.432Z,28.18
2023-08-16T20:25:37.934Z,27.25
2023-08-16T20:30:39.490Z,27.67
2023-08-16T20:35:41.043Z,27.55
2023-08-16T20:40:43.363Z,27.49
2023-08-16T20:45:44.909Z,27.55
2023-08-16T20:50:46.437Z,27.09
2023-08-16T20:55:48.050Z,27.01
2023-08-16T21:00:49.606Z,27.07
2023-08-16T21:05:51.113Z,27.04
2023-08-16T21:10:52.638Z,27.00
2023-08-16T21:15:54.228Z,26.85
2023-08-16T21:20:55.752Z,25.88
2023-08-16T21:25:57.277Z,25.98
2023-08-16T21:30:58.804Z,26.23
2023-08-16T21:36:00.320Z,26.37
2023-08-16T21:41:01.903Z,26.38
2023-08-16T21:46:03.506Z,26.35
2023-08-16T21:51:05.046Z,26.32
2023-08-16T21:56:07.811Z,26.29
2023-08-16T22:01:09.526Z,26.26
2023-08-16T22:06:11.225Z,26.23
2023-08-16T22:11:12.807Z,26.19
2023-08-16T22:16:14.665Z,26.15
2023-08-16T22:21:17.262Z,25.94
2023-08-16T22:26:18.808Z,25.97
2023-08-16T22:31:20.338Z,26.00
2023-08-16T22:36:22.396Z,25.96
2023-08-16T22:41:23.901Z,25.92
2023-08-16T22:46:25.514Z,25.86
2023-08-16T22:51:27.087Z,25.52
2023-08-16T22:56:28.582Z,25.62
2023-08-16T23:01:31.424Z,25.70
2023-08-16T23:06:35.360Z,25.61
2023-08-16T23:11:37.121Z,25.57
2023-08-16T23:16:38.802Z,25.53
2023-08-16T23:21:40.377Z,25.46
2023-08-16T23:26:41.913Z,25.36
2023-08-16T23:31:43.431Z,25.32
2023-08-16T23:36:45.267Z,25.19
2023-08-16T23:41:46.788Z,24.90
2023-08-16T23:46:48.295Z,25.02
2023-08-16T23:51:49.868Z,25.05
2023-08-16T23:56:51.376Z,24.95
